Time;durP1;ratioP1;P1;durP2;ratioP2;P2;SDS_P1;SDS_P2;PMS_P1;PMS_P2;Temp;Humidity;BMP_temperature;BMP_pressure;BME280_temperature;BME280_humidity;BME280_pressure;Samples;Min_cycle;Max_cycle;Signal;HPM_P1;HPM_P2
2022/11/18 00:02:09;;;;;;;;;;;;;;;15.96;56.61;99760.16;4864775;29;2721;-47
2022/11/18 00:04:35;;;;;;;;;;;;;;;15.81;56.30;99759.25;4863562;29;1113;-48
2022/11/18 00:07:00;;;;;;;;;;;;;;;16.08;56.70;99772.31;4863269;29;1148;-47
2022/11/18 00:09:25;;;;;;;;;;;;;;;17.52;54.29;99768.41;4863148;29;1052;-42
2022/11/18 00:14:35;;;;;;;;;;;;;;;16.20;56.63;99771.06;4860196;29;1914;-47
2022/11/18 00:17:01;;;;;;;;;;;;;;;15.99;56.37;99779.59;4862993;29;1148;-46
2022/11/18 00:19:30;;;;;;;;;;;;;;;15.85;56.16;99773.19;4862723;29;1140;-48
2022/11/18 00:21:56;;;;;;;;;;;;;;;16.68;56.05;99768.19;4862828;29;1112;-45
2022/11/18 00:24:21;;;;;;;;;;;;;;;17.40;54.05;99772.50;4863976;29;1153;-49
2022/11/18 00:26:47;;;;;;;;;;;;;;;16.49;56.31;99776.41;4869298;29;882;-47
2022/11/18 00:29:12;;;;;;;;;;;;;;;16.21;56.13;99778.19;4866513;29;1159;-45
2022/11/18 00:31:38;;;;;;;;;;;;;;;16.00;56.17;99778.47;4866419;29;2585;-46
2022/11/18 00:34:03;;;;;;;;;;;;;;;16.75;55.91;99784.28;4866372;29;1263;-46
2022/11/18 00:36:29;;;;;;;;;;;;;;;16.96;55.18;99783.97;4866825;29;1960;-49
2022/11/18 00:38:54;;;;;;;;;;;;;;;16.30;56.48;99783.84;4868076;29;855;-45
2022/11/18 00:41:20;;;;;;;;;;;;;;;16.05;56.53;99788.56;4866646;29;1124;-47
2022/11/18 00:43:45;;;;;;;;;;;;;;;15.89;56.42;99785.19;4866434;29;1227;-47
2022/11/18 00:46:11;;;;;;;;;;;;;;;15.78;56.36;99787.22;4866529;29;1129;-42
2022/11/18 00:48:36;;;;;;;;;;;;;;;17.19;54.90;99787.69;4866552;29;1168;-45
2022/11/18 00:51:20;;;;;;;;;;;;;;;16.96;54.98;99790.28;4878379;29;1120;-48
2022/11/18 00:53:45;;;;;;;;;;;;;;;16.30;56.26;99784.66;4866331;29;1202;-44
2022/11/18 00:56:11;;;;;;;;;;;;;;;16.07;56.38;99798.16;4866110;29;1972;-47
2022/11/18 00:58:36;;;;;;;;;;;;;;;15.89;56.21;99790.66;4865780;29;1147;-44
2022/11/18 01:01:02;;;;;;;;;;;;;;;15.79;56.18;99785.28;4866159;29;1866;-41
2022/11/18 01:03:27;;;;;;;;;;;;;;;17.01;55.15;99787.47;4877124;29;1235;-42
2022/11/18 01:05:53;;;;;;;;;;;;;;;17.05;54.90;99787.66;4866140;29;1151;-49
2022/11/18 01:08:18;;;;;;;;;;;;;;;16.37;56.21;99782.38;4865865;29;1192;-44
2022/11/18 01:10:44;;;;;;;;;;;;;;;16.07;56.31;99791.81;4865917;29;1152;-43
2022/11/18 01:13:19;;;;;;;;;;;;;;;16.13;56.61;99790.66;4865395;29;1148;-44
2022/11/18 01:15:48;;;;;;;;;;;;;;;17.26;54.30;99788.94;4866157;29;1903;-42
2022/11/18 01:18:14;;;;;;;;;;;;;;;16.37;56.34;99796.09;4865804;29;1127;-48
2022/11/18 01:20:40;;;;;;;;;;;;;;;16.07;56.52;99787.16;4866104;29;1140;-48
2022/11/18 01:23:05;;;;;;;;;;;;;;;15.89;56.20;99790.66;4866054;29;1136;-49
2022/11/18 01:25:31;;;;;;;;;;;;;;;16.03;56.66;99790.78;4865674;29;1121;-45
2022/11/18 01:27:56;;;;;;;;;;;;;;;17.42;53.90;99789.47;4877549;29;1052;-46
2022/11/18 01:30:22;;;;;;;;;;;;;;;16.48;55.94;99787.69;4865526;29;1175;-47
2022/11/18 01:32:47;;;;;;;;;;;;;;;16.13;56.44;99778.84;4864829;29;2690;-48
2022/11/18 01:35:12;;;;;;;;;;;;;;;15.87;56.28;99781.94;4865133;29;1910;-44
2022/11/18 01:37:38;;;;;;;;;;;;;;;16.40;56.52;99779.03;4865598;29;1218;-44
2022/11/18 01:40:04;;;;;;;;;;;;;;;17.48;53.67;99783.88;4875893;29;902;-46
2022/11/18 01:42:30;;;;;;;;;;;;;;;16.48;55.99;99774.81;4865077;29;1159;-47
2022/11/18 01:45:14;;;;;;;;;;;;;;;16.15;56.30;99779.41;4865074;29;1236;-43
2022/11/18 01:47:41;;;;;;;;;;;;;;;15.92;56.11;99779.13;4865489;29;1176;-46
2022/11/18 01:50:06;;;;;;;;;;;;;;;15.79;56.18;99771.59;4851034;29;1123;-49
2022/11/18 01:52:32;;;;;;;;;;;;;;;17.18;54.69;99764.91;4871177;29;1183;-48
2022/11/18 01:54:58;;;;;;;;;;;;;;;16.75;55.45;99773.31;4848831;29;1962;-44
2022/11/18 01:57:26;;;;;;;;;;;;;;;16.21;56.35;99769.97;4848853;29;1124;-42
2022/11/18 01:59:52;;;;;;;;;;;;;;;15.97;56.49;99770.84;4848939;29;1120;-47
2022/11/18 02:02:18;;;;;;;;;;;;;;;16.05;56.46;99767.44;4848168;29;2732;-44
2022/11/18 02:04:44;;;;;;;;;;;;;;;17.56;53.34;99770.25;4864779;29;1175;-44
2022/11/18 02:07:10;;;;;;;;;;;;;;;16.64;55.39;99766.34;4848714;29;1204;-48
2022/11/18 02:09:35;;;;;;;;;;;;;;;16.20;56.15;99758.19;4864969;29;1180;-44
2022/11/18 02:12:01;;;;;;;;;;;;;;;16.03;55.87;99764.19;4848600;29;1143;-43
2022/11/18 02:14:27;;;;;;;;;;;;;;;15.86;56.05;99763.84;4851597;29;1116;-46
2022/11/18 02:16:52;;;;;;;;;;;;;;;17.11;54.75;99764.50;4870990;29;1985;-47
2022/11/18 02:19:21;;;;;;;;;;;;;;;16.94;54.81;99765.03;4865247;29;1172;-46
2022/11/18 02:21:52;;;;;;;;;;;;;;;16.31;55.83;99760.78;4865059;29;1211;-45
2022/11/18 02:24:30;;;;;;;;;;;;;;;16.05;56.21;99767.44;4864621;29;1243;-45
2022/11/18 02:26:59;;;;;;;;;;;;;;;15.82;56.19;99757.31;4854138;29;1152;-46
2022/11/18 02:29:29;;;;;;;;;;;;;;;16.48;55.96;99763.84;4866532;29;1168;-45
2022/11/18 02:31:57;;;;;;;;;;;;;;;17.32;53.71;99764.09;4848104;29;2707;-44
2022/11/18 02:34:37;;;;;;;;;;;;;;;16.38;55.61;99761.22;4847710;29;1553;-47
2022/11/18 02:37:17;;;;;;;;;;;;;;;16.03;56.15;99775.16;4864797;29;1120;-45
2022/11/18 02:39:44;;;;;;;;;;;;;;;16.56;55.92;99762.34;4855036;29;1251;-47
2022/11/18 02:42:10;;;;;;;;;;;;;;;17.14;54.10;99771.28;4847321;29;1144;-49
2022/11/18 02:44:36;;;;;;;;;;;;;;;16.36;55.97;99774.44;4847594;29;1165;-47
2022/11/18 02:47:02;;;;;;;;;;;;;;;16.05;56.03;99772.13;4847370;29;1448;-44
2022/11/18 02:49:32;;;;;;;;;;;;;;;15.88;55.87;99765.19;4847325;29;1187;-44
2022/11/18 02:51:58;;;;;;;;;;;;;;;15.85;56.32;99774.00;4853489;29;949;-45
2022/11/18 02:54:24;;;;;;;;;;;;;;;17.38;53.84;99774.72;4847737;29;1109;-46
2022/11/18 02:56:49;;;;;;;;;;;;;;;16.67;55.20;99771.22;4847515;29;1994;-44
2022/11/18 02:59:18;;;;;;;;;;;;;;;16.21;55.86;99776.25;4848007;29;1168;-48
2022/11/18 03:01:43;;;;;;;;;;;;;;;15.97;55.99;99773.56;4864367;29;2438;-45
2022/11/18 03:04:09;;;;;;;;;;;;;;;15.79;55.81;99774.31;4867722;29;902;-47
2022/11/18 03:06:39;;;;;;;;;;;;;;;15.69;56.03;99772.53;4863806;29;1120;-47
2022/11/18 03:09:10;;;;;;;;;;;;;;;16.82;54.90;99784.72;4847466;29;1144;-45
2022/11/18 03:12:01;;;;;;;;;;;;;;;17.06;54.05;99779.13;4864460;29;1120;-44
2022/11/18 03:14:30;;;;;;;;;;;;;;;16.22;55.83;99785.31;4836937;29;1348;-45
2022/11/18 03:16:59;;;;;;;;;;;;;;;15.96;55.89;99782.09;4869594;29;1910;-47
2022/11/18 03:19:30;;;;;;;;;;;;;;;15.83;55.84;99778.16;4863580;29;1120;-45
2022/11/18 03:21:59;;;;;;;;;;;;;;;16.60;55.24;99783.38;4863959;29;1219;-44
2022/11/18 03:24:27;;;;;;;;;;;;;;;17.17;53.62;99792.69;4863724;29;1125;-47
2022/11/18 03:27:04;;;;;;;;;;;;;;;16.31;55.67;99780.78;4849730;29;1187;-44
2022/11/18 03:29:33;;;;;;;;;;;;;;;16.03;55.81;99786.13;4850333;29;1250;-44
2022/11/18 03:32:01;;;;;;;;;;;;;;;15.84;55.96;99783.34;4864747;29;2682;-48
2022/11/18 03:34:27;;;;;;;;;;;;;;;15.71;55.88;99781.25;4863626;29;1267;-49
2022/11/18 03:36:55;;;;;;;;;;;;;;;17.12;53.94;99782.59;4863348;29;1974;-48
2022/11/18 03:39:20;;;;;;;;;;;;;;;16.86;54.33;99782.19;4850480;29;1477;-46
2022/11/18 03:41:47;;;;;;;;;;;;;;;16.24;55.63;99774.84;4846886;29;1204;-47
2022/11/18 03:44:16;;;;;;;;;;;;;;;16.01;55.88;99779.31;4846779;29;1191;-48
2022/11/18 03:46:41;;;;;;;;;;;;;;;15.79;55.85;99779.81;4863224;29;1116;-45
2022/11/18 03:49:07;;;;;;;;;;;;;;;15.87;55.96;99787.41;4863964;29;1152;-46
2022/11/18 03:51:35;;;;;;;;;;;;;;;17.35;53.06;99786.31;4865653;29;1165;-45
2022/11/18 03:54:21;;;;;;;;;;;;;;;16.57;54.77;99783.19;4863723;29;1167;-48
2022/11/18 03:56:55;;;;;;;;;;;;;;;16.13;55.86;99781.59;4861800;29;1981;-48
2022/11/18 03:59:22;;;;;;;;;;;;;;;15.87;55.80;99787.41;4848391;29;1148;-49
2022/11/18 04:01:50;;;;;;;;;;;;;;;16.14;55.74;99791.47;4867075;29;2208;-47
2022/11/18 04:04:16;;;;;;;;;;;;;;;17.61;52.52;99781.16;4867806;29;849;-50
2022/11/18 04:06:44;;;;;;;;;;;;;;;16.71;54.36;99784.06;4866775;29;1171;-44
2022/11/18 04:09:14;;;;;;;;;;;;;;;16.21;55.29;99791.91;4850759;29;1120;-46
2022/11/18 04:12:01;;;;;;;;;;;;;;;15.97;55.86;99790.03;4850827;29;1129;-45
2022/11/18 04:14:27;;;;;;;;;;;;;;;15.79;55.77;99777.06;4852802;29;1096;-47
2022/11/18 04:16:53;;;;;;;;;;;;;;;16.10;55.77;99773.97;4852799;29;1910;-43
2022/11/18 04:19:18;;;;;;;;;;;;;;;17.36;52.95;99781.63;4866667;29;1238;-43
2022/11/18 04:21:44;;;;;;;;;;;;;;;16.38;55.05;99775.78;4850515;29;1215;-44
2022/11/18 04:24:09;;;;;;;;;;;;;;;16.06;55.59;99782.78;4850305;29;1195;-46
2022/11/18 04:26:35;;;;;;;;;;;;;;;15.86;55.64;99772.06;4866709;29;1203;-46
2022/11/18 04:29:00;;;;;;;;;;;;;;;16.59;54.85;99781.78;4867893;29;946;-46
2022/11/18 04:31:26;;;;;;;;;;;;;;;17.37;52.80;99784.06;4866609;29;2538;-42
2022/11/18 04:33:51;;;;;;;;;;;;;;;16.41;55.02;99775.19;4866451;29;1231;-46
2022/11/18 04:36:18;;;;;;;;;;;;;;;16.10;55.38;99788.47;4866630;29;1926;-44
2022/11/18 04:38:44;;;;;;;;;;;;;;;17.04;54.10;99789.59;4866356;29;1076;-42
2022/11/18 04:41:09;;;;;;;;;;;;;;;17.15;53.68;99790.22;4866194;29;966;-45
2022/11/18 04:43:35;;;;;;;;;;;;;;;16.41;55.28;99799.03;4866654;29;1152;-44
2022/11/18 04:46:00;;;;;;;;;;;;;;;16.12;55.76;99804.63;4866508;29;1212;-46
2022/11/18 04:48:25;;;;;;;;;;;;;;;16.01;55.85;99810.25;4866484;29;1192;-44
2022/11/18 04:50:51;;;;;;;;;;;;;;;17.40;53.07;99815.63;4866236;29;1191;-46
2022/11/18 04:53:16;;;;;;;;;;;;;;;16.48;55.25;99826.13;4872676;29;910;-47
2022/11/18 04:55:42;;;;;;;;;;;;;;;16.14;55.81;99818.91;4866365;29;1981;-46
2022/11/18 04:58:07;;;;;;;;;;;;;;;15.94;55.82;99825.47;4866415;29;1109;-45
2022/11/18 05:00:33;;;;;;;;;;;;;;;17.39;53.07;99831.31;4866389;29;2479;-46
2022/11/18 05:02:58;;;;;;;;;;;;;;;16.59;55.10;99831.19;4865969;29;1224;-47
2022/11/18 05:05:23;;;;;;;;;;;;;;;16.16;55.90;99833.94;4871033;29;896;-44
2022/11/18 05:07:49;;;;;;;;;;;;;;;15.95;55.90;99821.59;4866049;29;1109;-45
2022/11/18 05:10:15;;;;;;;;;;;;;;;15.95;55.95;99821.59;4865737;29;1109;-46
2022/11/18 05:12:51;;;;;;;;;;;;;;;17.51;52.89;99821.75;4865895;29;1172;-45
2022/11/18 05:15:17;;;;;;;;;;;;;;;16.62;55.01;99818.78;4866031;29;1978;-49
2022/11/18 05:17:42;;;;;;;;;;;;;;;16.21;55.83;99830.31;4861959;29;1202;-45
2022/11/18 05:20:08;;;;;;;;;;;;;;;15.98;55.76;99821.81;4866199;29;1147;-48
2022/11/18 05:22:33;;;;;;;;;;;;;;;15.86;55.74;99837.88;4866103;29;1200;-44
2022/11/18 05:24:59;;;;;;;;;;;;;;;16.64;55.27;99822.03;4865749;29;1152;-49
2022/11/18 05:27:24;;;;;;;;;;;;;;;17.35;53.10;99830.28;4865627;29;1188;-48
2022/11/18 05:29:50;;;;;;;;;;;;;;;16.41;55.44;99831.97;4876697;29;977;-44
2022/11/18 05:32:15;;;;;;;;;;;;;;;16.10;55.76;99829.63;4867173;29;2559;-50
2022/11/18 05:34:41;;;;;;;;;;;;;;;17.06;54.30;99833.25;4865573;29;1438;-46
2022/11/18 05:37:06;;;;;;;;;;;;;;;16.92;54.31;99827.69;4865308;29;1978;-45
2022/11/18 05:39:32;;;;;;;;;;;;;;;16.33;55.43;99830.72;4865448;29;1203;-47
2022/11/18 05:44:42;;;;;;;;;;;;;;;16.97;54.30;99838.59;4865421;29;1168;-49
2022/11/18 05:47:07;;;;;;;;;;;;;;;16.88;54.39;99834.88;4864646;29;1121;-48
2022/11/18 05:49:33;;;;;;;;;;;;;;;16.31;55.70;99834.84;4864230;29;1212;-49
2022/11/18 05:51:58;;;;;;;;;;;;;;;16.05;55.88;99838.75;4864889;29;1287;-46
2022/11/18 05:54:23;;;;;;;;;;;;;;;15.91;55.91;99835.06;4864980;29;1313;-45
2022/11/18 05:56:49;;;;;;;;;;;;;;;16.87;54.55;99830.47;4848208;29;1918;-49
2022/11/18 05:59:14;;;;;;;;;;;;;;;17.13;53.64;99832.88;4865385;29;1116;-45
2022/11/18 06:01:54;;;;;;;;;;;;;;;16.38;55.66;99835.31;4865174;29;2352;-49
2022/11/18 06:04:21;;;;;;;;;;;;;;;16.11;55.74;99838.69;4869379;29;1128;-49
2022/11/18 06:06:47;;;;;;;;;;;;;;;17.47;53.15;99834.47;4869492;29;1144;-47
2022/11/18 06:09:12;;;;;;;;;;;;;;;16.60;55.03;99835.53;4864413;29;1462;-46
2022/11/18 06:11:40;;;;;;;;;;;;;;;16.22;55.78;99838.25;4864128;29;1219;-46
2022/11/18 06:14:07;;;;;;;;;;;;;;;16.02;55.60;99836.59;4864522;29;1294;-46
2022/11/18 06:16:32;;;;;;;;;;;;;;;17.28;53.65;99841.66;4865999;29;1974;-47
2022/11/18 06:18:58;;;;;;;;;;;;;;;16.82;54.29;99841.56;4848003;29;1188;-45
2022/11/18 06:21:23;;;;;;;;;;;;;;;16.31;55.61;99843.88;4863482;29;1284;-42
2022/11/18 06:23:49;;;;;;;;;;;;;;;16.08;55.62;99837.34;4864318;29;1271;-47
2022/11/18 06:26:14;;;;;;;;;;;;;;;17.47;52.84;99842.72;4864393;29;1188;-45
2022/11/18 06:28:39;;;;;;;;;;;;;;;16.70;54.56;99853.78;4865340;29;1219;-43
2022/11/18 06:31:05;;;;;;;;;;;;;;;16.34;55.41;99843.31;4849469;29;1833;-45
2022/11/18 06:33:31;;;;;;;;;;;;;;;16.97;53.71;99843.25;4864377;29;1291;-43
2022/11/18 06:35:56;;;;;;;;;;;;;;;16.40;52.88;99844.88;4863971;29;1910;-43
2022/11/18 06:38:24;;;;;;;;;;;;;;;17.23;53.56;99860.16;4864804;29;1208;-47
2022/11/18 06:40:50;;;;;;;;;;;;;;;16.56;53.06;99848.25;4865444;29;1244;-46
2022/11/18 06:48:44;;;;;;;;;;;;;;;16.68;52.58;99844.25;4863627;29;1101;-47
2022/11/18 06:51:09;;;;;;;;;;;;;;;16.19;51.32;99832.56;4863821;29;1176;-46
2022/11/18 06:53:35;;;;;;;;;;;;;;;16.98;52.65;99848.47;4863402;29;1318;-49
2022/11/18 06:56:03;;;;;;;;;;;;;;;16.44;51.80;99847.84;4863941;29;1899;-44
2022/11/18 06:58:29;;;;;;;;;;;;;;;17.79;51.84;99845.44;4863648;29;1421;-47
2022/11/18 07:00:54;;;;;;;;;;;;;;;17.75;51.87;99827.91;4863276;29;1782;-47
2022/11/18 07:03:20;;;;;;;;;;;;;;;16.92;51.86;99822.19;4863605;29;1101;-46
2022/11/18 07:05:45;;;;;;;;;;;;;;;16.59;50.77;99822.94;4865741;29;1251;-46
2022/11/18 07:08:10;;;;;;;;;;;;;;;16.42;49.49;99831.69;4863562;29;1271;-47
2022/11/18 07:10:36;;;;;;;;;;;;;;;16.80;50.76;99819.06;4863766;29;1310;-47
2022/11/18 07:13:01;;;;;;;;;;;;;;;17.08;52.30;99815.34;4863983;29;1180;-47
2022/11/18 07:15:27;;;;;;;;;;;;;;;16.65;51.79;99826.44;4863929;29;1911;-48
2022/11/18 07:17:52;;;;;;;;;;;;;;;18.26;51.57;99819.75;4865702;29;913;-50
2022/11/18 07:20:17;;;;;;;;;;;;;;;17.18;52.27;99824.53;4863925;29;1399;-49
2022/11/18 07:22:43;;;;;;;;;;;;;;;16.76;51.27;99819.66;4863971;29;1198;-45
2022/11/18 07:25:08;;;;;;;;;;;;;;;16.66;49.75;99821.75;4863417;29;1101;-46
2022/11/18 07:27:34;;;;;;;;;;;;;;;17.34;51.84;99823.16;4863568;29;1108;-45
2022/11/18 07:29:59;;;;;;;;;;;;;;;16.73;51.28;99820.28;4866214;29;1073;-45
2022/11/18 07:32:25;;;;;;;;;;;;;;;17.90;51.96;99825.97;4863063;29;2276;-49
2022/11/18 07:34:50;;;;;;;;;;;;;;;17.84;51.93;99824.41;4863176;29;1967;-47
2022/11/18 07:37:15;;;;;;;;;;;;;;;17.08;51.23;99826.34;4863527;29;1156;-45
2022/11/18 07:39:41;;;;;;;;;;;;;;;16.85;50.32;99821.75;4864267;29;1128;-43
2022/11/18 07:42:07;;;;;;;;;;;;;;;16.65;49.13;99812.72;4871501;29;1152;-48
2022/11/18 07:44:33;;;;;;;;;;;;;;;16.49;48.45;99814.03;4857243;29;1395;-49
2022/11/18 07:46:58;;;;;;;;;;;;;;;17.05;49.74;99813.19;4865690;29;1210;-47
2022/11/18 07:49:24;;;;;;;;;;;;;;;16.91;50.77;99807.66;4861691;29;1136;-49
2022/11/18 07:51:49;;;;;;;;;;;;;;;16.66;50.44;99808.03;4862248;29;1199;-45
2022/11/18 07:54:16;;;;;;;;;;;;;;;17.86;51.29;99802.94;4861911;29;944;-49
2022/11/18 07:56:41;;;;;;;;;;;;;;;17.02;51.17;99802.81;4865819;29;1935;-49
2022/11/18 07:59:07;;;;;;;;;;;;;;;16.86;51.01;99801.41;4871431;29;1076;-46
2022/11/18 08:01:32;;;;;;;;;;;;;;;17.25;51.93;99794.72;4861881;29;1947;-44
2022/11/18 08:04:04;;;;;;;;;;;;;;;16.86;50.71;99801.41;4861931;29;1165;-46
2022/11/18 08:06:31;;;;;;;;;;;;;;;18.15;51.01;99810.91;4874372;29;994;-48
2022/11/18 08:08:56;;;;;;;;;;;;;;;17.23;51.43;99810.72;4861897;29;1171;-47
2022/11/18 08:11:21;;;;;;;;;;;;;;;16.92;50.35;99809.28;4862238;29;1100;-46
2022/11/18 08:13:47;;;;;;;;;;;;;;;16.69;49.24;99801.94;4861957;29;1183;-46
2022/11/18 08:16:13;;;;;;;;;;;;;;;16.56;48.62;99800.75;4861888;29;1976;-47
2022/11/18 08:18:39;;;;;;;;;;;;;;;16.48;48.14;99804.16;4860603;29;1361;-47
2022/11/18 08:21:04;;;;;;;;;;;;;;;17.30;50.70;99818.56;4862284;29;1101;-47
2022/11/18 08:23:30;;;;;;;;;;;;;;;16.79;49.92;99810.03;4861612;29;1066;-44
2022/11/18 08:26:00;;;;;;;;;;;;;;;16.52;49.36;99807.94;4862049;29;1148;-46
2022/11/18 08:28:26;;;;;;;;;;;;;;;16.47;48.40;99806.09;4859342;29;1236;-46
2022/11/18 08:30:51;;;;;;;;;;;;;;;17.19;50.06;99804.19;4873459;29;1784;-47
2022/11/18 08:33:17;;;;;;;;;;;;;;;16.68;49.83;99809.34;4861821;29;1084;-49
2022/11/18 08:35:42;;;;;;;;;;;;;;;17.57;50.11;99815.03;4861776;29;1903;-47
2022/11/18 08:38:07;;;;;;;;;;;;;;;17.09;51.42;99811.47;4861263;29;1100;-50
2022/11/18 08:40:33;;;;;;;;;;;;;;;16.87;50.03;99808.50;4861874;29;1108;-44
2022/11/18 08:42:58;;;;;;;;;;;;;;;16.85;50.34;99808.00;4861517;29;1192;-47
2022/11/18 08:45:24;;;;;;;;;;;;;;;17.05;50.89;99807.69;4862934;29;1124;-48
2022/11/18 08:47:49;;;;;;;;;;;;;;;16.65;50.05;99811.88;4865168;29;1125;-47
2022/11/18 08:50:15;;;;;;;;;;;;;;;17.29;50.34;99812.22;4865159;29;1096;-48
2022/11/18 08:52:40;;;;;;;;;;;;;;;16.85;50.70;99810.75;4864943;29;1124;-45
2022/11/18 08:55:06;;;;;;;;;;;;;;;16.64;49.54;99805.56;4872505;29;1918;-45
2022/11/18 08:57:31;;;;;;;;;;;;;;;16.55;48.74;99807.34;4864799;29;1164;-46
2022/11/18 08:59:56;;;;;;;;;;;;;;;17.37;49.90;99810.75;4864907;29;1208;-45
2022/11/18 09:02:22;;;;;;;;;;;;;;;16.78;50.01;99802.91;4865191;29;2730;-45
2022/11/18 09:04:50;;;;;;;;;;;;;;;17.38;50.44;99804.13;4864884;29;1129;-44
2022/11/18 09:07:16;;;;;;;;;;;;;;;16.97;50.50;99802.91;4874304;29;910;-48
2022/11/18 09:09:42;;;;;;;;;;;;;;;16.68;49.94;99803.88;4865306;29;1164;-49
2022/11/18 09:12:08;;;;;;;;;;;;;;;17.62;50.27;99801.19;4861964;29;1164;-49
2022/11/18 09:14:33;;;;;;;;;;;;;;;16.96;50.29;99795.78;4863976;29;934;-45
2022/11/18 09:16:59;;;;;;;;;;;;;;;16.67;49.21;99791.25;4864562;29;1997;-44
2022/11/18 09:19:24;;;;;;;;;;;;;;;16.89;49.75;99792.59;4867914;29;914;-45
2022/11/18 09:21:49;;;;;;;;;;;;;;;17.04;50.62;99797.84;4864221;29;1260;-43
2022/11/18 09:24:15;;;;;;;;;;;;;;;16.63;49.67;99778.44;4864469;29;1149;-47
2022/11/18 09:26:40;;;;;;;;;;;;;;;17.17;50.14;99778.97;4864865;29;1171;-42
2022/11/18 09:29:07;;;;;;;;;;;;;;;17.10;50.21;99774.66;4864592;29;1247;-47
2022/11/18 09:31:32;;;;;;;;;;;;;;;16.71;49.59;99773.06;4865713;29;2371;-46
2022/11/18 09:33:59;;;;;;;;;;;;;;;16.60;48.65;99774.34;4865139;29;1133;-45
2022/11/18 09:36:24;;;;;;;;;;;;;;;17.36;49.62;99763.22;4864966;29;1902;-45
2022/11/18 09:38:50;;;;;;;;;;;;;;;16.81;49.76;99761.09;4865115;29;1453;-45
2022/11/18 09:41:29;;;;;;;;;;;;;;;16.45;49.22;99758.13;4865566;29;1264;-43
2022/11/18 09:44:05;;;;;;;;;;;;;;;17.20;49.95;99748.13;4842949;29;1002;-46
2022/11/18 09:46:35;;;;;;;;;;;;;;;16.71;49.55;99745.63;4836959;29;1193;-48
2022/11/18 09:49:14;;;;;;;;;;;;;;;16.56;48.95;99743.13;4848315;29;1152;-48
2022/11/18 09:51:49;;;;;;;;;;;;;;;17.20;49.94;99734.38;4853722;29;1045;-44
2022/11/18 09:54:21;;;;;;;;;;;;;;;16.62;49.56;99733.72;4864454;29;1188;-43
2022/11/18 09:56:47;;;;;;;;;;;;;;;18.22;49.53;99738.94;4848381;29;1998;-46
2022/11/18 09:59:13;;;;;;;;;;;;;;;17.37;50.58;99734.59;4865045;29;1085;-43
2022/11/18 10:01:39;;;;;;;;;;;;;;;16.97;49.75;99736.16;4865154;29;2559;-45
2022/11/18 10:04:04;;;;;;;;;;;;;;;16.75;48.89;99721.94;4847771;29;1104;-41
2022/11/18 10:06:31;;;;;;;;;;;;;;;16.64;48.34;99723.22;4865087;29;1183;-42
2022/11/18 10:08:57;;;;;;;;;;;;;;;17.41;49.78;99721.88;4863516;29;1112;-41
2022/11/18 10:11:23;;;;;;;;;;;;;;;16.81;49.65;99710.88;4864745;29;1148;-44
2022/11/18 10:14:00;;;;;;;;;;;;;;;16.70;48.54;99722.03;4847324;29;1121;-43
2022/11/18 10:16:43;;;;;;;;;;;;;;;16.56;48.03;99715.69;4847100;29;1976;-44
2022/11/18 10:19:09;;;;;;;;;;;;;;;17.03;49.60;99716.56;4868497;29;1046;-43
2022/11/18 10:21:40;;;;;;;;;;;;;;;16.71;49.01;99717.38;4864387;29;1279;-42
2022/11/18 10:24:26;;;;;;;;;;;;;;;17.56;49.66;99717.22;4863052;29;1560;-43
2022/11/18 10:26:55;;;;;;;;;;;;;;;16.93;49.68;99708.50;4864090;29;1400;-46
2022/11/18 10:29:22;;;;;;;;;;;;;;;16.70;48.96;99694.56;4847654;29;1068;-47
2022/11/18 10:32:00;;;;;;;;;;;;;;;16.51;48.35;99682.81;4878892;29;1769;-46
2022/11/18 10:34:25;;;;;;;;;;;;;;;17.42;49.46;99689.75;4865131;29;1178;-46
2022/11/18 10:37:17;;;;;;;;;;;;;;;16.97;50.33;99682.06;4863464;29;1907;-47
2022/11/18 10:39:52;;;;;;;;;;;;;;;16.69;49.25;99678.41;4843636;29;1157;-48
2022/11/18 10:42:20;;;;;;;;;;;;;;;17.66;49.51;99689.50;4864877;29;1240;-45
2022/11/18 10:44:46;;;;;;;;;;;;;;;16.81;50.17;99681.50;4863998;29;1100;-43
2022/11/18 10:47:15;;;;;;;;;;;;;;;16.69;48.92;99692.13;4862994;29;1203;-43
2022/11/18 10:49:41;;;;;;;;;;;;;;;16.67;48.94;99689.69;4863711;29;1183;-45
2022/11/18 10:52:13;;;;;;;;;;;;;;;17.19;49.81;99678.63;4864069;29;1097;-43
2022/11/18 10:54:38;;;;;;;;;;;;;;;16.75;49.31;99680.75;4868386;29;1152;-43
2022/11/18 10:57:05;;;;;;;;;;;;;;;17.56;49.33;99684.22;4867629;29;1985;-43
2022/11/18 10:59:31;;;;;;;;;;;;;;;16.93;49.54;99683.78;4864357;29;1037;-45
2022/11/18 11:02:01;;;;;;;;;;;;;;;16.58;49.04;99680.53;4863749;29;2270;-44
2022/11/18 11:04:27;;;;;;;;;;;;;;;17.40;49.58;99684.56;4834675;29;1015;-45
2022/11/18 11:06:53;;;;;;;;;;;;;;;16.75;49.53;99680.75;4869025;29;1089;-40
2022/11/18 11:09:24;;;;;;;;;;;;;;;16.51;49.16;99682.81;4863103;29;1124;-44
2022/11/18 11:12:22;;;;;;;;;;;;;;;16.53;48.12;99683.34;4846840;29;1167;-43
2022/11/18 11:14:50;;;;;;;;;;;;;;;17.42;48.97;99678.75;4813428;29;1184;-44
2022/11/18 11:17:30;;;;;;;;;;;;;;;17.03;49.60;99675.34;4863644;29;1907;-44
2022/11/18 11:19:55;;;;;;;;;;;;;;;16.75;49.75;99666.25;4851068;29;862;-46
2022/11/18 11:22:21;;;;;;;;;;;;;;;17.34;50.16;99672.00;4862895;29;1124;-45
2022/11/18 11:24:46;;;;;;;;;;;;;;;16.86;50.00;99675.13;4846434;29;1195;-44
2022/11/18 11:27:27;;;;;;;;;;;;;;;16.63;48.93;99658.47;4862934;29;1113;-45
2022/11/18 11:30:02;;;;;;;;;;;;;;;17.42;49.44;99651.25;4846880;29;1180;-45
2022/11/18 11:32:27;;;;;;;;;;;;;;;17.17;50.10;99647.09;4862372;29;1830;-39
2022/11/18 11:35:08;;;;;;;;;;;;;;;16.79;49.35;99647.22;4862530;29;1285;-41
2022/11/18 11:37:33;;;;;;;;;;;;;;;17.64;49.73;99638.69;4860832;29;1256;-43
2022/11/18 11:40:18;;;;;;;;;;;;;;;16.95;50.01;99634.06;4863258;29;1291;-44
2022/11/18 11:42:49;;;;;;;;;;;;;;;16.68;49.07;99635.63;4864156;29;1295;-47
2022/11/18 11:45:27;;;;;;;;;;;;;;;16.67;48.03;99623.81;4862624;29;1215;-43
2022/11/18 11:47:55;;;;;;;;;;;;;;;16.63;47.55;99631.03;4861837;29;1199;-44
2022/11/18 11:50:27;;;;;;;;;;;;;;;17.35;49.07;99626.94;4863005;29;1247;-41
2022/11/18 11:52:59;;;;;;;;;;;;;;;16.98;50.08;99616.97;4862128;29;1211;-42
2022/11/18 11:55:24;;;;;;;;;;;;;;;16.72;49.12;99618.25;4864414;29;1915;-45
2022/11/18 11:57:58;;;;;;;;;;;;;;;17.71;49.44;99606.94;4862865;29;1239;-44
2022/11/18 12:00:24;;;;;;;;;;;;;;;16.84;50.05;99606.75;4863295;29;1152;-44
2022/11/18 12:02:52;;;;;;;;;;;;;;;18.06;49.71;99598.16;4862496;29;2695;-47
2022/11/18 12:05:32;;;;;;;;;;;;;;;17.65;50.58;99599.91;4863159;29;1129;-43
2022/11/18 12:07:59;;;;;;;;;;;;;;;17.04;50.09;99593.78;4847984;29;1085;-38
2022/11/18 12:10:26;;;;;;;;;;;;;;;16.99;48.98;99588.41;4846824;29;1173;-40
2022/11/18 12:13:10;;;;;;;;;;;;;;;16.80;48.45;99599.44;4845636;29;1203;-41
2022/11/18 12:15:38;;;;;;;;;;;;;;;17.08;49.50;99584.63;4862901;29;1899;-40
2022/11/18 12:18:10;;;;;;;;;;;;;;;17.01;50.22;99584.25;4863459;29;1116;-47
2022/11/18 12:20:39;;;;;;;;;;;;;;;16.73;49.28;99586.94;4848331;29;986;-42
2022/11/18 12:23:31;;;;;;;;;;;;;;;17.77;49.83;99586.44;4866329;29;1480;-41
2022/11/18 12:26:00;;;;;;;;;;;;;;;17.05;50.16;99579.72;4863897;29;1357;-45
2022/11/18 12:28:31;;;;;;;;;;;;;;;16.79;49.17;99576.66;4866344;29;1187;-43
2022/11/18 12:31:15;;;;;;;;;;;;;;;16.67;48.44;99577.16;4867986;29;2494;-44
2022/11/18 12:33:44;;;;;;;;;;;;;;;17.44;49.22;99575.63;4874332;29;1155;-40
2022/11/18 12:36:12;;;;;;;;;;;;;;;16.87;49.30;99580.63;4866369;29;1981;-40
2022/11/18 12:38:38;;;;;;;;;;;;;;;17.25;49.88;99574.94;4850216;29;1109;-44
2022/11/18 12:43:45;;;;;;;;;;;;;;;17.27;50.04;99570.75;4866312;29;1147;-45
2022/11/18 12:43:49;;;;;;;;;;;;;;;16.82;49.37;99575.25;4859757;29;1156;-44
2022/11/18 12:46:33;;;;;;;;;;;;;;;16.74;48.41;99572.06;4869191;29;1124;-47
2022/11/18 12:49:18;;;;;;;;;;;;;;;17.01;49.45;99561.44;4866001;29;1019;-42
2022/11/18 12:51:44;;;;;;;;;;;;;;;16.92;49.62;99562.16;4865718;29;1291;-42
2022/11/18 12:54:35;;;;;;;;;;;;;;;16.66;48.67;99552.75;4866204;29;1144;-44
2022/11/18 12:57:16;;;;;;;;;;;;;;;16.98;48.69;99557.38;4843588;29;1992;-41
2022/11/18 12:59:41;;;;;;;;;;;;;;;16.92;49.55;99553.09;4866194;29;1164;-41
2022/11/18 13:02:09;;;;;;;;;;;;;;;16.72;48.65;99554.31;4865896;29;2585;-40
2022/11/18 13:04:35;;;;;;;;;;;;;;;16.57;48.32;99553.47;4848818;29;1152;-43
2022/11/18 13:07:01;;;;;;;;;;;;;;;17.58;49.03;99558.28;4864771;29;1179;-47
2022/11/18 13:09:28;;;;;;;;;;;;;;;16.87;49.26;99558.66;4865625;29;984;-43
2022/11/18 13:11:57;;;;;;;;;;;;;;;16.63;48.76;99556.91;4864892;29;1145;-46
2022/11/18 13:20:21;;;;;;;;;;;;;;;17.34;49.81;99564.06;4866479;29;1189;-40